Flight Track Log - Related Links

Times and Time Zones

All times are in EDT time to prevent confusion due to time zone crossing. See the UAL3779 flight status page for this flight to view local times or setup timezone preferences in your user account.

Time Position Orientation Groundspeed Altitude Reporting Facility
EDT Latitude Longitude Course Direction KTS MPH feet Rate Location/Type
Mon 07:04:37 AM 35.4436 -97.6047 50° Northeast 175 201 3,500  Level Fort Worth Center
Mon 07:07:01 AM 35.5564 -97.4403 50° Northeast 310 357 8,100 2,137 Climbing Kansas City Center
Mon 07:08:02 AM 35.5978 -97.3358 64° Northeast 330 380 10,800 2,311 Climbing Kansas City Center
Mon 07:09:03 AM 35.6422 -97.2225 64° Northeast 356 410 12,800 2,200 Climbing Kansas City Center
Mon 07:10:02 AM 35.6897 -97.1028 64° Northeast 380 437 15,200 2,168 Climbing Kansas City Center
Mon 07:11:02 AM 35.7369 -96.9806 65° Northeast 392 451 17,100 1,951 Climbing Kansas City Center
Mon 07:12:05 AM 35.7889 -96.8497 64° Northeast 415 478 19,200 2,182 Climbing Kansas City Center
Mon 07:13:03 AM 35.8400 -96.7167 65° Northeast 427 491 21,500 2,168 Climbing Kansas City Center
Mon 07:14:04 AM 35.8919 -96.5839 64° Northeast 430 495 23,500 1,820 Climbing Kansas City Center
Mon 07:15:05 AM 35.9447 -96.4478 64° Northeast 438 504 25,200 1,561 Climbing Kansas City Center
Mon 07:16:07 AM 35.9914 -96.3250 65° Northeast 445 512 26,700 1,415 Climbing Kansas City Center
Mon 07:17:08 AM 36.0467 -96.1842 64° Northeast 452 520 28,100 1,450 Climbing Kansas City Center
Mon 07:18:07 AM 36.1139 -96.0083 65° Northeast 467 537 29,600 1,361 Climbing Kansas City Center
Mon 07:19:07 AM 36.1706 -95.8589 65° Northeast 477 549 30,800 1,122 Climbing Kansas City Center
Mon 07:20:10 AM 36.2258 -95.7233 63° Northeast 484 557 31,900 1,131 Climbing Kansas City Center
Mon 07:21:09 AM 36.2978 -95.5808 58° Northeast 488 562 33,100 1,210 Climbing Kansas City Center
Mon 07:22:09 AM 36.3683 -95.4350 59° Northeast 490 564 34,300 1,171 Climbing Kansas City Center
Mon 07:23:12 AM 36.4367 -95.2892 60° Northeast 492 566 35,500 1,073 Climbing Kansas City Center
Mon 07:24:12 AM 36.5056 -95.1478 59° Northeast 483 556 36,500 744 Climbing Kansas City Center
Mon 07:25:13 AM 36.5750 -95.0019 59° Northeast 482 555 37,000 248 Climbing Kansas City Center
Mon 07:26:13 AM 36.6453 -94.8525 60° Northeast 492 566 37,000  Level Kansas City Center
Mon 07:27:15 AM 36.7181 -94.6992 59° Northeast 507 583 37,000  Level Kansas City Center
Mon 07:28:16 AM 36.7919 -94.5433 59° Northeast 517 595 37,000  Level Kansas City Center
Mon 07:29:14 AM 36.9006 -94.3786 50° Northeast 513 590 37,000  Level Kansas City Center
Mon 07:30:18 AM 37.0122 -94.2708 38° Northeast 506 582 37,000  Level Kansas City Center
Mon 07:31:18 AM 37.1233 -94.1633 38° Northeast 505 581 37,000  Level Kansas City Center
Mon 07:32:19 AM 37.2214 -94.0681 38° Northeast 505 581 37,000  Level Kansas City Center
Mon 07:33:20 AM 37.3328 -93.9583 38° Northeast 506 582 37,000  Level Kansas City Center
Mon 07:34:21 AM 37.4436 -93.8486 38° Northeast 505 581 37,000  Level Kansas City Center
Mon 07:35:22 AM 37.5528 -93.7403 38° Northeast 500 575 37,000  Level Kansas City Center
Mon 07:36:23 AM 37.6608 -93.6319 38° Northeast 495 570 37,000  Level Kansas City Center
Mon 07:37:24 AM 37.7656 -93.5228 39° Northeast 489 563 37,000  Level Kansas City Center
Mon 07:38:24 AM 37.8950 -93.3917 39° Northeast 491 565 37,000  Level Kansas City Center
Mon 07:39:25 AM 38.0025 -93.2833 38° Northeast 491 565 37,000  Level Kansas City Center
Mon 07:40:26 AM 38.1108 -93.1717 39° Northeast 494 568 37,000  Level Kansas City Center
Mon 07:41:25 AM 38.2219 -93.0608 38° Northeast 498 573 37,000  Level Kansas City Center
Mon 07:42:26 AM 38.3311 -92.9475 39° Northeast 501 577 37,000  Level Kansas City Center
Mon 07:43:30 AM 38.4411 -92.8347 39° Northeast 501 577 37,000  Level Kansas City Center
Mon 07:44:30 AM 38.5500 -92.7219 39° Northeast 500 575 37,000  Level Kansas City Center
Mon 07:45:29 AM 38.6569 -92.6089 40° Northeast 496 571 37,000  Level Kansas City Center
Mon 07:46:31 AM 38.7664 -92.4953 39° Northeast 499 574 37,000  Level Kansas City Center
Mon 07:47:31 AM 38.8703 -92.3733 42° Northeast 502 578 37,000  Level Kansas City Center
Mon 07:48:33 AM 38.9617 -92.2311 50° Northeast 507 583 37,000  Level Kansas City Center
Mon 07:49:33 AM 39.0553 -92.0917 49° Northeast 509 586 37,000  Level Kansas City Center
Mon 07:50:34 AM 39.1469 -91.9481 51° Northeast 513 590 37,000  Level Kansas City Center
Mon 07:51:38 AM 39.2403 -91.8083 49° Northeast 513 590 37,000 -295 Level Kansas City Center
Mon 07:52:36 AM 39.3364 -91.6603 50° Northeast 520 598 36,400 -843 Descending Kansas City Center
Mon 07:53:39 AM 39.4300 -91.5167 50° Northeast 523 602 35,300 -1,056 Descending Kansas City Center
Mon 07:54:41 AM 39.5256 -91.3683 50° Northeast 522 601 34,200 -634 Descending Kansas City Center
Mon 07:55:42 AM 39.6164 -91.2269 50° Northeast 522 601 34,000 -101 Descending Kansas City Center
Mon 07:56:40 AM 39.7122 -91.0806 50° Northeast 526 605 34,000 -246 Level Kansas City Center
Mon 07:57:44 AM 39.8244 -90.9653 38° Northeast 521 600 33,500 -480 Descending Kansas City Center
Mon 07:58:45 AM 39.9539 -90.8350 38° Northeast 521 600 33,000 -248 Descending Kansas City Center
Mon 07:59:45 AM 40.0678 -90.7194 38° Northeast 519 597 33,000  Level Kansas City Center
Mon 08:00:34 AM 40.1636 -90.6233 37° Northeast 520 598 33,000  Level Chicago Center
Mon 08:01:36 AM 40.2642 -90.4908 45° Northeast 529 609 33,000  Level Chicago Center
Mon 08:02:38 AM 40.3636 -90.3522 47° Northeast 523 602 33,000  Level Chicago Center
Mon 08:03:40 AM 40.4694 -90.2061 46° Northeast 525 604 33,000  Level Chicago Center
Mon 08:04:41 AM 40.5653 -90.0653 48° Northeast 520 598 33,000 -146 Level Chicago Center
Mon 08:05:43 AM 40.6675 -89.9283 45° Northeast 524 603 32,700 -1,597 Descending Chicago Center
Mon 08:06:45 AM 40.7844 -89.7608 47° Northeast 520 598 29,700 -2,683 Descending Chicago Center
Mon 08:07:46 AM 40.8822 -89.6239 47° Northeast 514 592 27,200 -2,341 Descending Chicago Center
Mon 08:08:48 AM 40.9669 -89.5019 47° Northeast 517 595 24,900 -1,548 Descending Chicago Center
Mon 08:09:50 AM 41.0831 -89.3378 47° Northeast 506 582 24,000 -1,597 Descending Chicago Center
Mon 08:10:52 AM 41.1764 -89.2019 48° Northeast 498 573 21,600 -2,439 Descending Chicago Center
Mon 08:11:53 AM 41.2606 -89.0792 48° Northeast 489 563 19,000 -2,927 Descending Chicago Center
Mon 08:12:55 AM 41.3606 -88.9311 48° Northeast 445 512 15,600 -2,855 Descending Chicago Center
Mon 08:13:57 AM 41.4361 -88.8231 47° Northeast 405 466 13,100 -2,177 Descending Chicago Center
Mon 08:14:59 AM 41.5078 -88.7164 48° Northeast 388 447 11,100 -1,024 Descending Chicago Center
Mon 08:16:00 AM 41.5589 -88.5917 61° Northeast 385 443 11,000 -488 Descending Chicago Center
Mon 08:17:02 AM 41.6122 -88.4633 61° Northeast 392 451 10,100 -484 Descending Chicago Center
Mon 08:18:04 AM 41.6794 -88.3458 53° Northeast 394 453 10,000 -48 Descending Chicago Center
Mon 08:19:06 AM 41.7461 -88.2331 52° Northeast 386 444 10,000 -439 Level Chicago Center
Mon 08:20:07 AM 41.8008 -88.1372 53° Northeast 328 377 9,100 -1,366 Descending Chicago Center
Mon 08:21:09 AM 41.8961 -88.1144 10° North 303 349 7,200 -1,016 Descending Chicago Center
Mon 08:22:11 AM 41.9789 -88.1150 360° North 298 343 7,000 -677 Descending Chicago Center
Mon 08:23:13 AM 42.0492 -88.1650 332° Northwest 293 337 5,800 -1,113 Descending Chicago Center
Mon 08:24:15 AM 42.1142 -88.1617 North 274 315 4,700 -1,256 Descending Chicago Center
Mon 08:25:22 AM 42.1000 -88.0667 101° East 230 265 3,100 -992 Descending Chicago TRACON
Mon 08:26:22 AM 42.0667 -88.0167 132° Southeast 174 200 2,600 -533 Descending Chicago TRACON
Mon 08:28:22 AM 42.0044 -87.9503 142° Southeast 168 193 1,500 -550 Descending Chicago Center
Mon 08:30:00 AM 41.9817 -87.9067 73° East  Level Estimated

Login

Don't have an account? Register now (free) for customized features, flight alerts, and more!